createdAt,value
2017-09-19T00:00:27.932Z,22.28
2017-09-19T00:01:08.377Z,22.3
2017-09-19T00:01:48.827Z,22.31
2017-09-19T00:02:29.268Z,22.23
2017-09-19T00:03:09.709Z,22.28
2017-09-19T00:03:50.154Z,22.3
2017-09-19T00:04:30.605Z,22.3
2017-09-19T00:05:11.061Z,22.25
2017-09-19T00:05:51.510Z,22.36
2017-09-19T00:06:31.963Z,22.28
2017-09-19T00:07:12.409Z,22.31
2017-09-19T00:07:52.855Z,22.28
2017-09-19T00:08:33.303Z,22.26
2017-09-19T00:09:13.750Z,22.25
2017-09-19T00:09:54.204Z,22.28
2017-09-19T00:10:34.654Z,22.26
2017-09-19T00:11:15.099Z,22.23
2017-09-19T00:13:12.818Z,22.33
2017-09-19T00:13:53.258Z,22.22
2017-09-19T00:14:33.703Z,22.3
2017-09-19T00:15:14.152Z,22.21
2017-09-19T00:15:54.592Z,22.3
2017-09-19T00:16:35.040Z,22.3
2017-09-19T00:17:15.487Z,22.28
2017-09-19T00:17:55.932Z,22.28
2017-09-19T00:18:36.380Z,22.23
2017-09-19T00:19:16.829Z,22.28
2017-09-19T00:19:57.276Z,22.3
2017-09-19T00:20:37.724Z,22.19
2017-09-19T00:21:18.188Z,22.28
2017-09-19T00:21:58.637Z,22.25
2017-09-19T00:22:39.086Z,22.23
2017-09-19T00:23:19.525Z,22.28
2017-09-19T00:23:59.974Z,22.18
2017-09-19T00:24:40.412Z,22.26
2017-09-19T00:25:20.863Z,22.26
2017-09-19T00:26:01.311Z,22.25
2017-09-19T00:26:41.752Z,22.25
2017-09-19T00:27:22.230Z,22.23
2017-09-19T00:28:02.678Z,22.28
2017-09-19T00:28:43.131Z,22.23
2017-09-19T00:29:23.591Z,22.26
2017-09-19T00:30:04.037Z,22.3
2017-09-19T00:30:44.491Z,22.26
2017-09-19T00:31:24.940Z,22.22
2017-09-19T00:32:05.387Z,22.3
2017-09-19T00:32:45.836Z,22.26
2017-09-19T00:33:26.287Z,22.23
2017-09-19T00:34:06.728Z,22.28
2017-09-19T00:34:47.175Z,22.31
2017-09-19T00:35:27.647Z,22.33
2017-09-19T00:36:08.084Z,22.25
2017-09-19T00:36:48.532Z,22.28
2017-09-19T00:37:28.985Z,22.3
2017-09-19T00:38:09.442Z,22.25
2017-09-19T00:38:49.880Z,22.28
2017-09-19T00:39:30.329Z,22.28
2017-09-19T00:40:10.806Z,22.23
2017-09-19T00:40:51.271Z,22.28
2017-09-19T00:41:31.692Z,22.28
2017-09-19T00:42:12.139Z,22.37
2017-09-19T00:42:52.590Z,22.28
2017-09-19T00:43:33.030Z,22.3
2017-09-19T00:44:13.475Z,22.26
2017-09-19T00:44:53.920Z,22.26
2017-09-19T00:45:34.365Z,22.23
2017-09-19T00:46:14.830Z,22.34
2017-09-19T00:46:55.283Z,22.3
2017-09-19T00:47:35.734Z,22.37
2017-09-19T00:48:16.182Z,22.3
2017-09-19T00:48:56.624Z,22.34
2017-09-19T00:49:37.072Z,22.23
2017-09-19T00:50:17.521Z,22.3
2017-09-19T00:50:57.968Z,22.28
2017-09-19T00:51:38.415Z,22.3
2017-09-19T00:52:18.864Z,22.31
2017-09-19T00:52:59.315Z,22.23
2017-09-19T00:53:39.761Z,22.23
2017-09-19T00:54:20.211Z,22.33
2017-09-19T00:55:00.660Z,22.3
2017-09-19T00:55:41.109Z,22.26
2017-09-19T00:56:21.552Z,22.33
2017-09-19T00:57:02.011Z,22.26
2017-09-19T00:57:42.443Z,22.33
2017-09-19T00:58:22.899Z,22.26
2017-09-19T00:59:03.341Z,22.26
2017-09-19T00:59:43.790Z,22.26
2017-09-19T01:00:24.233Z,22.34
2017-09-19T01:01:04.678Z,22.26
2017-09-19T01:01:45.126Z,22.26
2017-09-19T01:02:25.567Z,22.33
2017-09-19T01:03:06.015Z,22.19
2017-09-19T01:03:46.480Z,22.3
2017-09-19T01:04:26.931Z,22.31
2017-09-19T01:05:07.378Z,22.36
2017-09-19T01:05:47.825Z,22.31
2017-09-19T01:06:28.275Z,22.3
2017-09-19T01:07:08.723Z,22.23
2017-09-19T01:07:49.171Z,22.31
2017-09-19T01:08:29.624Z,22.3
2017-09-19T01:09:10.068Z,22.23
2017-09-19T01:11:22.896Z,22.34
2017-09-19T01:12:03.337Z,22.25
2017-09-19T01:12:43.780Z,22.3
2017-09-19T01:13:24.228Z,22.3
2017-09-19T01:14:04.677Z,22.26
2017-09-19T01:14:45.124Z,22.31
2017-09-19T01:15:25.572Z,22.28
2017-09-19T01:16:06.014Z,22.3
2017-09-19T01:16:46.455Z,22.26
2017-09-19T01:17:26.955Z,22.28
2017-09-19T01:18:07.343Z,22.28
2017-09-19T01:18:47.791Z,22.25
2017-09-19T01:19:28.238Z,22.3
2017-09-19T01:20:08.688Z,22.25
2017-09-19T01:20:49.134Z,22.28
2017-09-19T01:21:29.582Z,22.28
2017-09-19T01:22:10.033Z,22.3
2017-09-19T01:22:50.492Z,22.3
2017-09-19T01:23:30.930Z,22.22
2017-09-19T01:24:11.374Z,22.21
2017-09-19T01:24:51.827Z,22.25
2017-09-19T01:25:32.291Z,22.18
2017-09-19T01:26:12.730Z,22.19
2017-09-19T01:26:53.175Z,22.22
2017-09-19T01:27:33.619Z,22.23
2017-09-19T01:28:14.068Z,22.22
2017-09-19T01:28:54.517Z,22.23
2017-09-19T01:29:34.963Z,22.19
2017-09-19T01:30:15.416Z,22.21
2017-09-19T01:30:55.853Z,22.22
2017-09-19T01:31:36.301Z,22.15
2017-09-19T01:32:16.759Z,22.19
2017-09-19T01:32:57.205Z,22.18
2017-09-19T01:33:37.645Z,22.19
2017-09-19T01:34:18.094Z,22.18
2017-09-19T01:34:58.541Z,22.22
2017-09-19T01:35:38.990Z,22.22
2017-09-19T01:36:19.438Z,22.23
2017-09-19T01:36:59.888Z,22.21
2017-09-19T01:37:40.336Z,22.19
2017-09-19T01:38:20.791Z,22.22
2017-09-19T01:39:01.228Z,22.22
2017-09-19T01:39:41.679Z,22.19
2017-09-19T01:40:22.134Z,22.21
2017-09-19T01:41:02.576Z,22.21
2017-09-19T01:41:43.011Z,22.12
2017-09-19T01:42:23.462Z,22.15
2017-09-19T01:43:03.909Z,22.23
2017-09-19T01:43:44.350Z,22.22
2017-09-19T01:44:24.793Z,22.15
2017-09-19T01:45:05.242Z,22.18
2017-09-19T01:45:45.692Z,22.15
2017-09-19T01:46:26.143Z,22.18
2017-09-19T01:47:06.592Z,22.15
2017-09-19T01:47:47.046Z,22.18
2017-09-19T01:48:27.495Z,22.21
2017-09-19T01:49:07.968Z,22.16
2017-09-19T01:49:48.405Z,22.22
2017-09-19T01:50:28.850Z,22.23
2017-09-19T01:51:09.297Z,22.16
2017-09-19T01:51:49.749Z,22.15
2017-09-19T01:52:30.207Z,22.15
2017-09-19T01:53:10.653Z,22.21
2017-09-19T01:53:51.095Z,22.21
2017-09-19T01:54:31.549Z,22.21
2017-09-19T01:55:11.996Z,22.12
2017-09-19T01:55:52.438Z,22.21
2017-09-19T01:56:32.880Z,22.18
2017-09-19T01:57:13.329Z,22.15
2017-09-19T01:57:53.776Z,22.18
2017-09-19T01:58:34.223Z,22.18
2017-09-19T01:59:14.671Z,22.18
2017-09-19T01:59:55.109Z,22.21
2017-09-19T02:00:35.610Z,22.21
2017-09-19T02:01:16.033Z,22.15
2017-09-19T02:01:56.480Z,22.14
2017-09-19T02:02:36.930Z,22.18
2017-09-19T02:03:17.382Z,22.16
2017-09-19T02:03:57.826Z,22.18
2017-09-19T02:04:38.276Z,22.26
2017-09-19T02:05:18.723Z,22.23
2017-09-19T02:05:59.171Z,22.22
2017-09-19T02:06:39.618Z,22.18
2017-09-19T02:07:20.061Z,22.19
2017-09-19T02:08:00.505Z,22.22
2017-09-19T02:08:40.943Z,22.28
2017-09-19T02:09:21.396Z,22.19
2017-09-19T02:10:01.848Z,22.21
2017-09-19T02:10:42.295Z,22.22
2017-09-19T02:11:22.740Z,22.16
2017-09-19T02:12:03.193Z,22.21
2017-09-19T02:12:43.631Z,22.16
2017-09-19T02:13:24.080Z,22.23
2017-09-19T02:14:04.526Z,22.16
2017-09-19T02:14:44.968Z,22.18
2017-09-19T02:15:25.413Z,22.15
2017-09-19T02:16:05.860Z,22.18
2017-09-19T02:16:46.309Z,22.18
2017-09-19T02:17:26.758Z,22.16
2017-09-19T02:18:07.214Z,22.16
2017-09-19T02:18:47.663Z,22.18
2017-09-19T02:19:28.111Z,22.14
2017-09-19T02:20:08.560Z,22.25
2017-09-19T02:20:49.078Z,22.18
2017-09-19T02:21:29.512Z,22.19
2017-09-19T02:22:09.966Z,22.21
2017-09-19T02:22:50.412Z,22.22
2017-09-19T02:23:30.862Z,22.18
2017-09-19T02:24:11.310Z,22.16
2017-09-19T02:24:51.760Z,22.19
2017-09-19T02:25:32.215Z,22.19
2017-09-19T02:26:12.663Z,22.22
2017-09-19T02:26:53.113Z,22.19
2017-09-19T02:27:33.554Z,22.16
2017-09-19T02:28:14.007Z,22.19
2017-09-19T02:28:54.458Z,22.16
2017-09-19T02:29:34.906Z,22.26
2017-09-19T02:30:15.356Z,22.16
2017-09-19T02:30:55.795Z,22.18
2017-09-19T02:31:36.242Z,22.16
2017-09-19T02:32:16.692Z,22.08
2017-09-19T02:32:57.139Z,22.19
2017-09-19T02:33:37.588Z,22.14
2017-09-19T02:34:18.070Z,22.18
2017-09-19T02:34:58.485Z,22.19
2017-09-19T02:35:38.932Z,22.16
2017-09-19T02:36:19.381Z,22.07
2017-09-19T02:36:59.824Z,22.21
2017-09-19T02:37:40.272Z,22.14
2017-09-19T02:38:20.718Z,22.19
2017-09-19T02:39:01.164Z,22.18
2017-09-19T02:39:41.612Z,22.21
2017-09-19T02:40:22.072Z,22.19
2017-09-19T02:41:02.526Z,22.15
2017-09-19T02:41:42.982Z,22.14
2017-09-19T02:42:23.427Z,22.16
2017-09-19T02:43:03.880Z,22.18
2017-09-19T02:43:44.340Z,22.21
2017-09-19T02:44:24.793Z,22.12
2017-09-19T02:45:05.240Z,22.21
2017-09-19T02:45:45.693Z,22.21
2017-09-19T02:46:26.146Z,22.14
2017-09-19T02:47:06.596Z,22.16
2017-09-19T02:47:47.038Z,22.15
2017-09-19T02:48:27.486Z,22.12
2017-09-19T02:49:07.918Z,22.15
2017-09-19T02:49:48.372Z,22.18
2017-09-19T02:50:28.819Z,22.07
2017-09-19T02:51:09.270Z,22.14
2017-09-19T02:51:49.722Z,22.12
2017-09-19T02:52:30.169Z,22.15
2017-09-19T02:53:10.584Z,22.1
2017-09-19T02:53:51.031Z,22.04
2017-09-19T02:54:31.478Z,22.1
2017-09-19T02:55:11.907Z,22.08
2017-09-19T02:55:52.356Z,22.07
2017-09-19T02:56:32.800Z,22.08
2017-09-19T02:57:13.248Z,22.1
2017-09-19T02:57:53.706Z,22.12
2017-09-19T02:58:34.141Z,22.16
2017-09-19T02:59:14.593Z,22.16
2017-09-19T02:59:55.030Z,22.04
2017-09-19T03:00:35.489Z,22.08
2017-09-19T03:01:15.935Z,22.19
2017-09-19T03:01:56.378Z,22.1
2017-09-19T03:02:36.832Z,22.14
2017-09-19T03:03:17.276Z,22.19
2017-09-19T03:03:57.724Z,22.14
2017-09-19T03:04:38.162Z,22.12
2017-09-19T03:05:18.627Z,22.15
2017-09-19T03:05:59.068Z,22.1
2017-09-19T03:06:39.515Z,22.06
2017-09-19T03:07:19.971Z,22.15
2017-09-19T03:08:00.423Z,22.08
2017-09-19T03:08:40.871Z,22.1
2017-09-19T03:09:21.315Z,22.06
2017-09-19T03:10:01.764Z,22.16
2017-09-19T03:10:42.206Z,22.14
2017-09-19T03:11:22.662Z,22.06
2017-09-19T03:12:03.093Z,22.04
2017-09-19T03:12:43.540Z,22.04
2017-09-19T03:13:23.987Z,22.06
2017-09-19T03:14:04.411Z,22.07
2017-09-19T03:14:44.884Z,22.08
2017-09-19T03:15:25.351Z,22.07
2017-09-19T03:16:05.790Z,21.99
2017-09-19T03:16:46.242Z,22.1
2017-09-19T03:17:26.697Z,22.07
2017-09-19T03:18:07.140Z,22.07
2017-09-19T03:18:47.591Z,22.06
2017-09-19T03:19:28.039Z,22.07
2017-09-19T03:20:08.490Z,22.07
2017-09-19T03:20:48.936Z,22.04
2017-09-19T03:21:29.385Z,22
2017-09-19T03:22:09.836Z,22.06
2017-09-19T03:22:50.288Z,22.06
2017-09-19T03:23:30.738Z,22.06
2017-09-19T03:24:11.233Z,21.96
2017-09-19T03:24:51.684Z,22.07
2017-09-19T03:25:32.134Z,22.01
2017-09-19T03:26:12.584Z,22.03
2017-09-19T03:26:53.036Z,22.12
2017-09-19T03:27:33.484Z,22.03
2017-09-19T03:28:13.935Z,22.04
2017-09-19T03:28:54.385Z,22.1
2017-09-19T03:29:34.824Z,22.07
2017-09-19T03:30:15.257Z,22.03
2017-09-19T03:30:55.698Z,21.99
2017-09-19T03:31:36.135Z,22.04
2017-09-19T03:32:16.583Z,22.04
2017-09-19T03:32:57.031Z,22.04
2017-09-19T03:33:37.479Z,21.99
2017-09-19T03:34:17.926Z,22.03
2017-09-19T03:34:58.374Z,22
2017-09-19T03:35:38.824Z,22
2017-09-19T03:36:19.273Z,22.01
2017-09-19T03:36:59.715Z,22.01
2017-09-19T03:37:40.166Z,22.08
2017-09-19T03:38:20.619Z,22.04
2017-09-19T03:39:01.098Z,22.06
2017-09-19T03:39:41.542Z,22.1
2017-09-19T03:40:21.989Z,22.03
2017-09-19T03:41:02.437Z,22.03
2017-09-19T03:41:42.882Z,22.06
2017-09-19T03:42:23.333Z,22.03
2017-09-19T03:43:03.789Z,22.07
2017-09-19T03:43:44.236Z,22.01
2017-09-19T03:44:24.694Z,22.04
2017-09-19T03:45:05.145Z,22.16
2017-09-19T03:45:45.595Z,22.18
2017-09-19T03:46:26.038Z,22.18
2017-09-19T03:47:06.479Z,22.16
2017-09-19T03:47:46.930Z,22.18
2017-09-19T03:48:27.376Z,22.18
2017-09-19T03:49:07.830Z,22.15
2017-09-19T03:49:48.267Z,22.19
2017-09-19T03:50:28.706Z,22.23
2017-09-19T03:51:09.170Z,22.18
2017-09-19T03:51:49.617Z,22.19
2017-09-19T03:52:30.070Z,22.16
2017-09-19T03:53:10.512Z,22.28
2017-09-19T03:53:50.965Z,22.22
2017-09-19T03:54:31.412Z,22.19
2017-09-19T03:55:11.858Z,22.16
2017-09-19T03:55:52.287Z,22.22
2017-09-19T03:56:32.730Z,22.21
2017-09-19T03:57:13.173Z,22.22
2017-09-19T03:57:53.621Z,22.16
2017-09-19T03:58:34.037Z,22.19
2017-09-19T03:59:14.489Z,22.21
2017-09-19T03:59:54.937Z,22.22
2017-09-19T04:00:35.384Z,22.22
2017-09-19T04:01:15.834Z,22.22
2017-09-19T04:01:56.283Z,22.19
2017-09-19T04:02:36.719Z,22.21
2017-09-19T04:03:17.175Z,22.21
2017-09-19T04:03:57.623Z,22.25
2017-09-19T04:04:38.074Z,22.15
2017-09-19T04:05:18.519Z,22.22
2017-09-19T04:05:58.979Z,22.26
2017-09-19T04:06:39.430Z,22.19
2017-09-19T04:07:19.881Z,22.23
2017-09-19T04:08:00.325Z,22.28
2017-09-19T04:08:40.786Z,22.25
2017-09-19T04:09:21.212Z,22.23
2017-09-19T04:10:01.640Z,22.28
2017-09-19T04:10:42.080Z,22.25
2017-09-19T04:11:22.533Z,22.28
2017-09-19T04:12:02.990Z,22.26
2017-09-19T04:12:43.443Z,22.37
2017-09-19T04:13:23.880Z,22.3
2017-09-19T04:14:04.335Z,22.26
2017-09-19T04:14:44.779Z,22.33
2017-09-19T04:15:25.342Z,22.28
2017-09-19T04:16:05.792Z,22.23
2017-09-19T04:16:46.231Z,22.34
2017-09-19T04:17:26.678Z,22.28
2017-09-19T04:18:07.119Z,22.28
2017-09-19T04:18:47.558Z,22.36
2017-09-19T04:19:28.028Z,22.4
2017-09-19T04:20:08.464Z,22.33
2017-09-19T04:20:48.913Z,22.37
2017-09-19T04:21:29.375Z,22.43
2017-09-19T04:23:06.801Z,22.38
2017-09-19T04:23:47.234Z,22.41
2017-09-19T04:24:27.668Z,22.46
2017-09-19T04:25:08.110Z,22.46
2017-09-19T04:25:48.553Z,22.41
2017-09-19T04:26:29.002Z,22.44
2017-09-19T04:27:09.453Z,22.41
2017-09-19T04:27:49.905Z,22.37
2017-09-19T04:28:30.346Z,22.55
2017-09-19T04:29:10.794Z,22.38
2017-09-19T04:29:51.223Z,22.38
2017-09-19T04:30:31.667Z,22.52
2017-09-19T04:31:12.111Z,22.56
2017-09-19T04:31:52.555Z,22.52
2017-09-19T04:32:33.008Z,22.47
2017-09-19T04:33:13.454Z,22.47
2017-09-19T04:33:53.896Z,22.59
2017-09-19T04:34:34.343Z,22.56
2017-09-19T04:35:14.789Z,22.59
2017-09-19T04:35:55.242Z,22.56
2017-09-19T04:36:35.724Z,22.46
2017-09-19T04:37:16.159Z,22.53
2017-09-19T04:37:56.594Z,22.53
2017-09-19T04:38:37.045Z,22.51
2017-09-19T04:39:17.493Z,22.56
2017-09-19T04:39:57.941Z,22.55
2017-09-19T04:40:38.398Z,22.49
2017-09-19T04:41:18.848Z,22.53
2017-09-19T04:41:59.294Z,22.58
2017-09-19T04:42:39.743Z,22.58
2017-09-19T04:43:20.193Z,22.62
2017-09-19T04:44:00.639Z,22.61
2017-09-19T04:44:41.096Z,22.58
2017-09-19T04:45:21.548Z,22.56
2017-09-19T04:46:02.002Z,22.62
2017-09-19T04:46:42.446Z,22.58
2017-09-19T04:47:22.896Z,22.61
2017-09-19T04:48:03.341Z,22.59
2017-09-19T04:48:43.773Z,22.62
2017-09-19T04:49:24.244Z,22.58
2017-09-19T04:50:04.693Z,22.59
2017-09-19T04:50:45.148Z,22.61
2017-09-19T04:51:25.592Z,22.63
2017-09-19T04:52:06.041Z,22.51
2017-09-19T04:52:46.489Z,22.61
2017-09-19T04:53:26.932Z,22.59
2017-09-19T04:54:07.381Z,22.61
2017-09-19T04:54:47.830Z,22.59
2017-09-19T04:55:28.271Z,22.62
2017-09-19T04:56:08.738Z,22.65
2017-09-19T04:56:49.198Z,22.59
2017-09-19T04:57:29.644Z,22.61
2017-09-19T04:58:10.082Z,22.62
2017-09-19T04:58:50.524Z,22.62
2017-09-19T04:59:30.973Z,22.61
2017-09-19T05:00:11.427Z,22.63
2017-09-19T05:00:51.865Z,22.55
2017-09-19T05:01:32.313Z,22.53
2017-09-19T05:02:12.756Z,22.63
2017-09-19T05:02:53.192Z,22.61
2017-09-19T05:03:33.640Z,22.51
2017-09-19T05:04:14.085Z,22.49
2017-09-19T05:04:54.527Z,22.51
2017-09-19T05:05:34.977Z,22.52
2017-09-19T05:06:15.431Z,22.53
2017-09-19T05:06:55.876Z,22.61
2017-09-19T05:07:36.326Z,22.53
2017-09-19T05:08:16.784Z,22.58
2017-09-19T05:08:57.231Z,22.61
2017-09-19T05:09:37.691Z,22.58
2017-09-19T05:10:18.143Z,22.53
2017-09-19T05:10:58.590Z,22.61
2017-09-19T05:11:39.041Z,22.63
2017-09-19T05:12:19.499Z,22.62
2017-09-19T05:12:59.948Z,22.63
2017-09-19T05:13:40.393Z,22.56
2017-09-19T05:14:20.843Z,22.59
2017-09-19T05:15:01.291Z,22.63
2017-09-19T05:15:41.763Z,22.68
2017-09-19T05:16:22.207Z,22.62
2017-09-19T05:17:02.665Z,22.58
2017-09-19T05:17:43.099Z,22.61
2017-09-19T05:18:23.546Z,22.68
2017-09-19T05:19:03.986Z,22.58
2017-09-19T05:19:44.440Z,22.62
2017-09-19T05:20:24.887Z,22.61
2017-09-19T05:21:05.474Z,22.62
2017-09-19T05:22:52.983Z,22.63
2017-09-19T05:23:33.429Z,22.63
2017-09-19T05:24:13.900Z,22.56
2017-09-19T05:24:54.347Z,22.49
2017-09-19T05:25:34.792Z,22.53
2017-09-19T05:26:15.239Z,22.51
2017-09-19T05:26:55.680Z,22.52
2017-09-19T05:27:36.132Z,22.55
2017-09-19T05:28:16.584Z,22.43
2017-09-19T05:28:57.023Z,22.52
2017-09-19T05:29:37.474Z,22.46
2017-09-19T05:30:17.918Z,22.58
2017-09-19T05:30:58.366Z,22.55
2017-09-19T05:31:38.814Z,22.49
2017-09-19T05:32:19.259Z,22.51
2017-09-19T05:32:59.689Z,22.55
2017-09-19T05:33:40.130Z,22.55
2017-09-19T05:34:20.578Z,22.55
2017-09-19T05:35:01.088Z,22.58
2017-09-19T05:35:41.542Z,22.43
2017-09-19T05:36:21.991Z,22.51
2017-09-19T05:37:02.429Z,22.44
2017-09-19T05:37:42.879Z,22.51
2017-09-19T05:38:23.323Z,22.51
2017-09-19T05:39:03.774Z,22.61
2017-09-19T05:39:44.251Z,22.49
2017-09-19T05:40:24.692Z,22.59
2017-09-19T05:41:05.168Z,22.55
2017-09-19T05:41:45.605Z,22.46
2017-09-19T05:43:38.194Z,22.52
2017-09-19T05:44:18.632Z,22.55
2017-09-19T05:44:59.074Z,22.43
2017-09-19T05:45:39.519Z,22.52
2017-09-19T05:46:19.963Z,22.51
2017-09-19T05:47:00.408Z,22.55
2017-09-19T05:47:40.850Z,22.51
2017-09-19T05:48:21.312Z,22.59
2017-09-19T05:49:01.782Z,22.53
2017-09-19T05:49:42.201Z,22.55
2017-09-19T05:50:22.647Z,22.55
2017-09-19T05:51:03.092Z,22.47
2017-09-19T05:51:43.547Z,22.49
2017-09-19T05:52:24.067Z,22.56
2017-09-19T05:53:04.632Z,22.47
2017-09-19T05:53:45.072Z,22.46
2017-09-19T05:54:25.734Z,22.56
2017-09-19T05:55:06.167Z,22.58
2017-09-19T05:55:46.621Z,22.59
2017-09-19T05:56:27.062Z,22.62
2017-09-19T05:57:07.511Z,22.52
2017-09-19T05:57:47.956Z,22.53
2017-09-19T05:58:28.401Z,22.47
2017-09-19T05:59:08.853Z,22.44
2017-09-19T05:59:49.300Z,22.44
2017-09-19T06:00:29.776Z,22.55
2017-09-19T06:01:10.218Z,22.46
2017-09-19T06:01:50.655Z,22.49
2017-09-19T06:02:31.102Z,22.52
2017-09-19T06:03:11.551Z,22.58
2017-09-19T06:03:52.007Z,22.43
2017-09-19T06:04:32.458Z,22.55
2017-09-19T06:05:12.905Z,22.56
2017-09-19T06:05:53.371Z,22.58
2017-09-19T06:06:33.819Z,22.49
2017-09-19T06:07:14.269Z,22.47
2017-09-19T06:07:54.711Z,22.49
2017-09-19T06:08:35.156Z,22.49
2017-09-19T06:09:15.812Z,22.56
2017-09-19T06:09:56.269Z,22.53
2017-09-19T06:10:36.708Z,22.59
2017-09-19T06:11:17.304Z,22.56
2017-09-19T06:11:57.586Z,22.51
2017-09-19T06:12:38.023Z,22.56
2017-09-19T06:13:18.474Z,22.51
2017-09-19T06:13:59.029Z,22.55
2017-09-19T06:14:39.528Z,22.53
2017-09-19T06:15:19.980Z,22.52
2017-09-19T06:16:00.479Z,22.51
2017-09-19T06:16:40.917Z,22.58
2017-09-19T06:17:21.477Z,22.56
2017-09-19T06:18:01.819Z,22.49
2017-09-19T06:18:42.265Z,22.51
2017-09-19T06:20:40.055Z,22.55
2017-09-19T06:21:20.645Z,22.51
2017-09-19T06:22:01.649Z,22.46
2017-09-19T06:22:42.115Z,22.49
2017-09-19T06:23:22.612Z,22.59
2017-09-19T06:24:03.084Z,22.55
2017-09-19T06:24:43.540Z,22.55
2017-09-19T06:25:23.960Z,22.49
2017-09-19T06:26:04.415Z,22.55
2017-09-19T06:26:44.862Z,22.53
2017-09-19T06:27:25.309Z,22.56
2017-09-19T06:28:05.836Z,22.52
2017-09-19T06:28:46.287Z,22.59
2017-09-19T06:29:26.789Z,22.59
2017-09-19T06:30:07.233Z,22.49
2017-09-19T06:30:47.674Z,22.49
2017-09-19T06:31:28.124Z,22.47
2017-09-19T06:32:08.570Z,22.53
2017-09-19T06:32:49.001Z,22.51
2017-09-19T06:33:29.441Z,22.55
2017-09-19T06:34:09.884Z,22.49
2017-09-19T06:34:50.388Z,22.46
2017-09-19T06:35:30.837Z,22.47
2017-09-19T06:36:11.273Z,22.56
2017-09-19T06:36:51.799Z,22.56
2017-09-19T06:38:39.548Z,22.51
2017-09-19T06:39:20.003Z,22.51
2017-09-19T06:40:00.442Z,22.51
2017-09-19T06:40:40.891Z,22.47
2017-09-19T06:41:21.338Z,22.53
2017-09-19T06:42:01.794Z,22.51
2017-09-19T06:42:42.294Z,22.47
2017-09-19T06:43:22.684Z,22.56
2017-09-19T06:44:03.131Z,22.51
2017-09-19T06:44:43.565Z,22.58
2017-09-19T06:45:23.992Z,22.53
2017-09-19T06:46:04.420Z,22.47
2017-09-19T06:46:44.872Z,22.51
2017-09-19T06:47:25.304Z,22.51
2017-09-19T06:48:05.742Z,22.47
2017-09-19T06:48:46.331Z,22.47
2017-09-19T06:49:26.780Z,22.47
2017-09-19T06:50:07.238Z,22.49
2017-09-19T06:50:47.675Z,22.53
2017-09-19T06:51:28.151Z,22.58
2017-09-19T06:52:08.548Z,22.58
2017-09-19T06:52:48.990Z,22.51
2017-09-19T06:53:29.427Z,22.55
2017-09-19T06:54:09.873Z,22.55
2017-09-19T06:54:50.326Z,22.58
2017-09-19T06:55:30.759Z,22.49
2017-09-19T06:56:11.195Z,22.55
2017-09-19T06:56:51.648Z,22.47
2017-09-19T06:57:32.083Z,22.47
2017-09-19T06:58:12.773Z,22.59
2017-09-19T07:00:10.636Z,22.51
2017-09-19T07:00:51.215Z,22.49
2017-09-19T07:01:31.656Z,22.44
2017-09-19T07:02:12.108Z,22.51
2017-09-19T07:02:52.551Z,22.47
2017-09-19T07:03:33.003Z,22.44
2017-09-19T07:05:31.253Z,22.47
2017-09-19T07:06:11.662Z,22.4
2017-09-19T07:06:52.105Z,22.43
2017-09-19T07:07:32.555Z,22.44
2017-09-19T07:08:12.997Z,22.38
2017-09-19T07:08:53.445Z,22.47
2017-09-19T07:09:37.108Z,22.44
2017-09-19T07:10:17.555Z,22.38
2017-09-19T07:10:58.075Z,22.44
2017-09-19T07:11:38.530Z,22.44
2017-09-19T07:12:18.996Z,22.44
2017-09-19T07:12:59.427Z,22.46
2017-09-19T07:13:39.869Z,22.41
2017-09-19T07:14:20.318Z,22.41
2017-09-19T07:15:00.765Z,22.4
2017-09-19T07:15:41.225Z,22.41
2017-09-19T07:16:21.671Z,22.44
2017-09-19T07:17:02.112Z,22.38
2017-09-19T07:17:42.602Z,22.36
2017-09-19T07:18:23.049Z,22.46
2017-09-19T07:19:03.488Z,22.46
2017-09-19T07:19:43.927Z,22.46
2017-09-19T07:20:24.374Z,22.47
2017-09-19T07:21:04.853Z,22.37
2017-09-19T07:21:45.303Z,22.41
2017-09-19T07:22:25.746Z,22.41
2017-09-19T07:23:06.186Z,22.47
2017-09-19T07:23:46.632Z,22.38
2017-09-19T07:24:27.158Z,22.43
2017-09-19T07:25:07.612Z,22.36
2017-09-19T07:25:48.261Z,22.44
2017-09-19T07:26:28.677Z,22.51
2017-09-19T07:27:09.123Z,22.43
2017-09-19T07:27:49.562Z,22.52
2017-09-19T07:28:30.028Z,22.55
2017-09-19T07:29:10.488Z,22.56
2017-09-19T07:29:51.108Z,22.52
2017-09-19T07:30:31.548Z,22.49
2017-09-19T07:31:11.979Z,22.59
2017-09-19T07:31:52.423Z,22.62
2017-09-19T07:32:32.872Z,22.51
2017-09-19T07:33:13.436Z,22.52
2017-09-19T07:33:53.842Z,22.51
2017-09-19T07:34:34.330Z,22.53
2017-09-19T07:35:14.777Z,22.47
2017-09-19T07:35:55.334Z,22.49
2017-09-19T07:36:35.811Z,22.47
2017-09-19T07:37:16.248Z,22.55
2017-09-19T07:37:56.675Z,22.55
2017-09-19T07:38:37.124Z,22.43
2017-09-19T07:39:17.567Z,22.47
2017-09-19T07:39:58.014Z,22.44
2017-09-19T07:40:38.475Z,22.53
2017-09-19T07:41:18.905Z,22.44
2017-09-19T07:41:59.321Z,22.46
2017-09-19T07:42:39.778Z,22.49
2017-09-19T07:43:20.231Z,22.53
2017-09-19T07:44:00.772Z,22.58
2017-09-19T07:44:41.217Z,22.49
2017-09-19T07:45:21.681Z,22.63
2017-09-19T07:46:02.102Z,22.51
2017-09-19T07:46:42.574Z,22.58
2017-09-19T07:47:23.006Z,22.59
2017-09-19T07:48:03.422Z,22.58
2017-09-19T07:48:43.875Z,22.61
2017-09-19T07:49:24.296Z,22.61
2017-09-19T07:50:04.718Z,22.65
2017-09-19T07:50:45.168Z,22.61
2017-09-19T07:51:25.843Z,22.67
2017-09-19T07:52:06.285Z,22.61
2017-09-19T07:52:46.714Z,22.61
2017-09-19T07:55:00.472Z,22.68
2017-09-19T07:55:40.970Z,22.62
2017-09-19T07:56:21.374Z,22.7
2017-09-19T07:57:01.808Z,22.59
2017-09-19T07:57:42.261Z,22.63
2017-09-19T07:58:22.704Z,22.74
2017-09-19T07:59:03.136Z,22.65
2017-09-19T07:59:43.605Z,22.74
2017-09-19T08:00:24.063Z,22.73
2017-09-19T08:01:04.538Z,22.71
2017-09-19T08:01:44.975Z,22.68
2017-09-19T08:02:25.433Z,22.74
2017-09-19T08:03:05.867Z,22.71
2017-09-19T08:03:46.320Z,22.74
2017-09-19T08:04:26.742Z,22.74
2017-09-19T08:05:07.173Z,22.77
2017-09-19T08:05:47.598Z,22.73
2017-09-19T08:06:28.010Z,22.71
2017-09-19T08:07:08.449Z,22.73
2017-09-19T08:07:48.846Z,22.68
2017-09-19T08:08:29.324Z,22.73
2017-09-19T08:09:09.724Z,22.7
2017-09-19T08:11:22.460Z,22.63
2017-09-19T08:12:02.898Z,22.76
2017-09-19T08:12:43.452Z,22.71
2017-09-19T08:13:23.869Z,22.73
2017-09-19T08:14:04.259Z,22.68
2017-09-19T08:14:44.649Z,22.78
2017-09-19T08:15:25.042Z,22.74
2017-09-19T08:16:05.442Z,22.76
2017-09-19T08:16:45.854Z,22.76
2017-09-19T08:17:26.254Z,22.67
2017-09-19T08:18:06.653Z,22.74
2017-09-19T08:18:47.069Z,22.76
2017-09-19T08:19:27.480Z,22.77
2017-09-19T08:20:07.891Z,22.8
2017-09-19T08:22:20.667Z,22.76
2017-09-19T08:23:01.081Z,22.78
2017-09-19T08:23:41.511Z,22.76
2017-09-19T08:24:21.916Z,22.73
2017-09-19T08:25:59.364Z,22.73
2017-09-19T08:26:39.816Z,22.74
2017-09-19T08:27:20.260Z,22.81
2017-09-19T08:28:00.704Z,22.8
2017-09-19T08:28:41.128Z,22.78
2017-09-19T08:29:21.546Z,22.78
2017-09-19T08:30:01.962Z,22.71
2017-09-19T08:30:42.370Z,22.83
2017-09-19T08:31:22.792Z,22.74
2017-09-19T08:32:03.248Z,22.78
2017-09-19T08:32:43.744Z,22.76
2017-09-19T08:33:24.161Z,22.67
2017-09-19T08:34:04.615Z,22.68
2017-09-19T08:36:17.361Z,22.81
2017-09-19T08:36:57.810Z,22.8
2017-09-19T08:37:38.242Z,22.78
2017-09-19T08:38:18.699Z,22.7
2017-09-19T08:38:59.132Z,22.76
2017-09-19T08:39:39.500Z,22.77
2017-09-19T08:40:19.903Z,22.8
2017-09-19T08:41:00.306Z,22.76
2017-09-19T08:41:40.707Z,22.77
2017-09-19T08:42:21.104Z,22.8
2017-09-19T08:43:01.513Z,22.7
2017-09-19T08:43:41.909Z,22.74
2017-09-19T08:44:22.324Z,22.83
2017-09-19T08:45:02.715Z,22.77
2017-09-19T08:45:43.244Z,22.76
2017-09-19T08:46:23.609Z,22.76
2017-09-19T08:47:04.056Z,22.86
2017-09-19T08:47:44.514Z,22.78
2017-09-19T08:48:24.953Z,22.74
2017-09-19T08:49:05.490Z,22.77
2017-09-19T08:49:45.893Z,22.73
2017-09-19T08:50:26.346Z,22.83
2017-09-19T08:51:06.685Z,22.71
2017-09-19T08:51:47.125Z,22.76
2017-09-19T08:52:27.576Z,22.73
2017-09-19T08:53:08.004Z,22.83
2017-09-19T08:53:48.448Z,22.77
2017-09-19T08:54:28.898Z,22.76
2017-09-19T08:55:09.312Z,22.71
2017-09-19T08:55:49.746Z,22.78
2017-09-19T08:56:30.109Z,22.7
2017-09-19T08:58:22.983Z,22.7
2017-09-19T08:59:03.423Z,22.76
2017-09-19T08:59:43.873Z,22.77
2017-09-19T09:00:24.288Z,22.74
2017-09-19T09:01:04.723Z,22.73
2017-09-19T09:01:45.101Z,22.76